Time;durP1;ratioP1;P1;durP2;ratioP2;P2;SDS_P1;SDS_P2;PMS_P1;PMS_P2;Temp;Humidity;BMP_temperature;BMP_pressure;BME280_temperature;BME280_humidity;BME280_pressure;Samples;Min_cycle;Max_cycle;Signal;HPM_P1;HPM_P2
2022/04/02 08:44:09;;;;;;;3.13;2.10;;;;;;;;;;5036718;28;20252;-79
2022/04/02 08:46:42;;;;;;;3.17;2.22;;;;;;;;;;5035707;28;20541;-80
2022/04/02 08:49:23;;;;;;;2.05;1.92;;;;;;;;;;5035820;28;20222;-81
2022/04/02 08:52:22;;;;;;;5.40;2.08;;;;;;;;;;5036524;28;20217;-81
2022/04/02 08:55:13;;;;;;;2.92;2.65;;;;;;;;;;5036092;28;20203;-81
2022/04/02 08:58:05;;;;;;;2.35;2.15;;;;;;;;;;5036030;28;20605;-84
2022/04/02 09:00:41;;;;;;;2.92;2.70;;;;;;;;;;5035763;28;20253;-81
2022/04/02 09:04:10;;;;;;;3.50;2.40;;;;;;;;;;5035351;28;20205;-81
2022/04/02 09:07:35;;;;;;;2.75;2.53;;;;;;;;;;5036209;28;20186;-80
2022/04/02 09:10:21;;;;;;;2.50;2.30;;;;;;;;;;4989169;28;20309;-81
2022/04/02 09:13:18;;;;;;;3.53;2.55;;;;;;;;;;5035351;28;20218;-81
2022/04/02 09:16:01;;;;;;;2.13;2.00;;;;;;;;;;5035097;28;20206;-84
2022/04/02 09:18:38;;;;;;;2.80;2.20;;;;;;;;;;5033717;28;20228;-88
2022/04/02 09:21:31;;;;;;;2.63;2.42;;;;;;;;;;5034621;28;20206;-85
2022/04/02 09:24:22;;;;;;;2.13;2.00;;;;;;;;;;5032077;28;20206;-87
2022/04/02 09:27:21;;;;;;;3.28;2.35;;;;;;;;;;5036661;28;20214;-83
2022/04/02 09:30:03;;;;;;;2.60;2.40;;;;;;;;;;5037163;28;20272;-82
2022/04/02 09:33:15;;;;;;;2.40;2.20;;;;;;;;;;5036513;28;20214;-83
2022/04/02 09:35:58;;;;;;;2.72;2.53;;;;;;;;;;5038148;28;20214;-84
2022/04/02 09:39:03;;;;;;;2.25;2.15;;;;;;;;;;5040258;28;20178;-84
2022/04/02 09:42:00;;;;;;;3.67;2.40;;;;;;;;;;5037084;28;20193;-83
2022/04/02 09:44:53;;;;;;;3.50;2.47;;;;;;;;;;5037752;28;20229;-83
2022/04/02 09:47:25;;;;;;;2.78;2.40;;;;;;;;;;5035753;28;20222;-83
2022/04/02 09:50:09;;;;;;;4.03;2.53;;;;;;;;;;5035157;28;20230;-83
2022/04/02 09:52:38;;;;;;;4.38;3.97;;;;;;;;;;5069895;22;20251;-81
2022/04/02 09:55:10;;;;;;;5.10;3.92;;;;;;;;;;5077826;28;20254;-80
2022/04/02 09:58:05;;;;;;;3.67;3.00;;;;;;;;;;5076854;28;20200;-81
2022/04/02 10:00:42;;;;;;;3.30;3.00;;;;;;;;;;5076269;28;20201;-83
2022/04/02 10:03:13;;;;;;;2.28;1.77;;;;;;;;;;5086931;28;20247;-82
2022/04/02 10:06:30;;;;;;;4.95;2.38;;;;;;;;;;5096305;28;20246;-82
2022/04/02 10:09:13;;;;;;;2.58;2.08;;;;;;;;;;5059242;28;20211;-83
2022/04/02 10:11:44;;;;;;;4.38;2.08;;;;;;;;;;5093599;28;20207;-83
2022/04/02 10:14:12;;;;;;;1.55;1.50;;;;;;;;;;5096146;28;20278;-83
2022/04/02 10:16:42;;;;;;;1.98;1.88;;;;;;;;;;5095615;28;20196;-82
2022/04/02 10:19:11;;;;;;;2.88;2.58;;;;;;;;;;5095305;28;20196;-82
2022/04/02 10:21:41;;;;;;;3.15;2.80;;;;;;;;;;5095018;28;20200;-83
2022/04/02 10:24:22;;;;;;;3.35;3.05;;;;;;;;;;5095071;28;20227;-81
2022/04/02 10:26:54;;;;;;;2.63;2.42;;;;;;;;;;5092218;28;20226;-81
2022/04/02 10:29:58;;;;;;;3.53;3.30;;;;;;;;;;5093937;28;20660;-82
2022/04/02 10:32:55;;;;;;;4.50;3.40;;;;;;;;;;5093922;28;20220;-82
2022/04/02 10:35:24;;;;;;;3.40;3.10;;;;;;;;;;5095738;28;20268;-84
2022/04/02 10:38:10;;;;;;;3.22;2.92;;;;;;;;;;5089620;28;20256;-81
2022/04/02 10:40:44;;;;;;;4.68;4.28;;;;;;;;;;5086433;28;20276;-82
2022/04/02 10:43:25;;;;;;;3.20;2.70;;;;;;;;;;5089630;28;20303;-82
2022/04/02 10:45:53;;;;;;;3.45;2.88;;;;;;;;;;5087669;28;20200;-82
2022/04/02 10:48:27;;;;;;;3.05;2.70;;;;;;;;;;5088985;28;20205;-82
2022/04/02 10:50:56;;;;;;;4.25;3.47;;;;;;;;;;5091847;28;20203;-79
2022/04/02 10:53:26;;;;;;;4.47;4.07;;;;;;;;;;5089113;28;20257;-79
2022/04/02 10:55:59;;;;;;;7.13;3.58;;;;;;;;;;5094991;28;20601;-82
2022/04/02 10:58:27;;;;;;;3.08;2.88;;;;;;;;;;5095306;28;20200;-81
2022/04/02 11:00:57;;;;;;;4.28;3.33;;;;;;;;;;5098341;28;20687;-83
2022/04/02 11:03:34;;;;;;;4.25;2.80;;;;;;;;;;5100250;28;20212;-81
2022/04/02 11:06:02;;;;;;;3.05;2.80;;;;;;;;;;5092433;28;20196;-81
2022/04/02 11:08:32;;;;;;;3.55;3.25;;;;;;;;;;5098547;28;20196;-81
2022/04/02 11:11:01;;;;;;;3.20;3.00;;;;;;;;;;5098183;28;20387;-81
2022/04/02 11:13:32;;;;;;;2.65;2.47;;;;;;;;;;5096197;28;20657;-82
2022/04/02 11:16:00;;;;;;;4.38;2.58;;;;;;;;;;5097327;28;20226;-82
2022/04/02 11:18:27;;;;;;;4.30;2.97;;;;;;;;;;5097330;28;20676;-82
2022/04/02 11:21:04;;;;;;;6.60;3.15;;;;;;;;;;5097550;28;20208;-82
2022/04/02 11:23:47;;;;;;;3.03;2.60;;;;;;;;;;5093560;28;20655;-82
2022/04/02 11:26:20;;;;;;;4.85;2.97;;;;;;;;;;5097548;28;20203;-82
2022/04/02 11:28:47;;;;;;;3.30;3.00;;;;;;;;;;5098166;28;20291;-84
2022/04/02 11:31:15;;;;;;;3.67;3.38;;;;;;;;;;5096204;28;20200;-83
2022/04/02 11:33:53;;;;;;;3.03;2.50;;;;;;;;;;5097771;28;20670;-83
2022/04/02 11:36:35;;;;;;;2.45;2.30;;;;;;;;;;5090549;28;20212;-83
2022/04/02 11:39:10;;;;;;;2.72;2.53;;;;;;;;;;5093220;28;20507;-83
2022/04/02 11:41:42;;;;;;;3.10;2.80;;;;;;;;;;5097851;28;20290;-83
2022/04/02 11:44:12;;;;;;;3.00;2.65;;;;;;;;;;5097849;28;20270;-84
2022/04/02 11:46:54;;;;;;;3.03;2.45;;;;;;;;;;5099046;28;20555;-83
2022/04/02 11:49:28;;;;;;;3.42;3.10;;;;;;;;;;5098397;28;20208;-81
2022/04/02 11:52:04;;;;;;;2.47;2.25;;;;;;;;;;5097210;28;20215;-81
2022/04/02 11:54:38;;;;;;;2.92;2.40;;;;;;;;;;5098068;28;20228;-83
2022/04/02 11:57:10;;;;;;;2.67;2.47;;;;;;;;;;5097696;28;20211;-82
2022/04/02 11:59:38;;;;;;;5.13;2.47;;;;;;;;;;5097651;28;20207;-81
2022/04/02 12:02:06;;;;;;;3.42;2.40;;;;;;;;;;5097320;28;20623;-83
2022/04/02 12:04:35;;;;;;;3.80;2.38;;;;;;;;;;5097032;28;20663;-83
2022/04/02 12:07:08;;;;;;;2.92;2.25;;;;;;;;;;5097300;28;20207;-83
2022/04/02 12:09:52;;;;;;;2.35;2.15;;;;;;;;;;5098312;28;20247;-83
2022/04/02 12:12:24;;;;;;;3.28;2.40;;;;;;;;;;5096851;28;20224;-83
2022/04/02 12:14:58;;;;;;;5.43;2.25;;;;;;;;;;5097512;28;20660;-83
2022/04/02 12:17:32;;;;;;;3.05;2.75;;;;;;;;;;5097628;28;20232;-82
2022/04/02 12:20:00;;;;;;;2.67;2.22;;;;;;;;;;5097326;28;20647;-83
2022/04/02 12:22:31;;;;;;;2.15;1.77;;;;;;;;;;5096853;28;20617;-83
2022/04/02 12:25:01;;;;;;;1.98;1.88;;;;;;;;;;5097441;28;20263;-82
2022/04/02 12:27:31;;;;;;;3.40;1.95;;;;;;;;;;5096825;28;20251;-82
2022/04/02 12:30:00;;;;;;;3.90;2.35;;;;;;;;;;5097611;28;20613;-82
2022/04/02 12:32:31;;;;;;;2.85;2.58;;;;;;;;;;5096913;28;20234;-83
2022/04/02 12:35:00;;;;;;;4.28;2.40;;;;;;;;;;5097013;28;20601;-84
2022/04/02 12:37:31;;;;;;;2.70;2.05;;;;;;;;;;5096959;28;20253;-84
2022/04/02 12:40:14;;;;;;;2.38;2.13;;;;;;;;;;5096624;28;20204;-83
2022/04/02 12:42:44;;;;;;;3.08;2.55;;;;;;;;;;5098027;28;20479;-84
2022/04/02 12:45:14;;;;;;;2.88;2.35;;;;;;;;;;5097119;28;20209;-84
2022/04/02 12:47:41;;;;;;;2.55;2.35;;;;;;;;;;5097124;28;20250;-84
2022/04/02 12:50:14;;;;;;;2.72;2.45;;;;;;;;;;5098048;28;20210;-83
2022/04/02 12:52:46;;;;;;;2.00;1.90;;;;;;;;;;5090757;28;20319;-84
2022/04/02 12:55:24;;;;;;;2.50;2.30;;;;;;;;;;5091377;28;20227;-84
2022/04/02 12:58:00;;;;;;;2.25;2.05;;;;;;;;;;5096833;28;20207;-83
2022/04/02 13:00:30;;;;;;;2.80;2.25;;;;;;;;;;5097818;28;20211;-83
2022/04/02 13:03:00;;;;;;;2.55;2.33;;;;;;;;;;5095997;28;20231;-83
2022/04/02 13:05:44;;;;;;;3.38;3.08;;;;;;;;;;5096179;28;20204;-83
2022/04/02 13:08:24;;;;;;;8.52;3.00;;;;;;;;;;5096615;28;20736;-83
2022/04/02 13:10:56;;;;;;;2.85;2.25;;;;;;;;;;5096862;28;20199;-82
2022/04/02 13:13:40;;;;;;;4.03;2.35;;;;;;;;;;5095570;28;20228;-82
2022/04/02 13:16:10;;;;;;;2.95;2.75;;;;;;;;;;5096939;28;20212;-83
2022/04/02 13:21:33;;;;;;;3.05;2.42;;;;;;;;;;5096654;28;20203;-83
2022/04/02 13:24:31;;;;;;;3.17;2.83;;;;;;;;;;5091453;28;20223;-81
2022/04/02 13:28:09;;;;;;;2.72;2.53;;;;;;;;;;5097762;28;20649;-82
2022/04/02 13:30:38;;;;;;;5.50;2.17;;;;;;;;;;5034951;28;20210;-84
2022/04/02 13:33:52;;;;;;;2.33;2.05;;;;;;;;;;5096085;28;20648;-83
2022/04/02 13:36:33;;;;;;;2.40;2.20;;;;;;;;;;5095430;28;20608;-82
2022/04/02 13:39:05;;;;;;;2.42;2.22;;;;;;;;;;5095507;28;20196;-83
2022/04/02 13:41:35;;;;;;;2.85;2.50;;;;;;;;;;5096952;28;20204;-82
2022/04/02 13:44:06;;;;;;;2.58;2.38;;;;;;;;;;5097012;28;20250;-82
2022/04/02 13:46:39;;;;;;;4.05;3.08;;;;;;;;;;5097822;28;20201;-84
2022/04/02 13:49:09;;;;;;;4.15;2.67;;;;;;;;;;5095487;28;20576;-83
2022/04/02 13:51:43;;;;;;;2.45;2.25;;;;;;;;;;5096775;28;20208;-83
2022/04/02 13:54:17;;;;;;;2.53;2.33;;;;;;;;;;5096448;28;20645;-83
2022/04/02 13:57:01;;;;;;;4.32;3.05;;;;;;;;;;5092904;28;20249;-82
2022/04/02 13:59:33;;;;;;;2.67;2.47;;;;;;;;;;5096231;28;20193;-83
2022/04/02 14:02:01;;;;;;;2.83;2.60;;;;;;;;;;5096466;28;20211;-83
2022/04/02 14:04:37;;;;;;;1.92;1.77;;;;;;;;;;5096411;28;20204;-83
2022/04/02 14:07:07;;;;;;;2.10;1.90;;;;;;;;;;5094379;28;20199;-83
2022/04/02 14:09:37;;;;;;;2.92;2.72;;;;;;;;;;5093998;28;20261;-83
2022/04/02 14:12:09;;;;;;;2.55;2.30;;;;;;;;;;5093803;28;20534;-83
2022/04/02 14:14:55;;;;;;;3.15;2.17;;;;;;;;;;5094039;28;20216;-82
2022/04/02 14:17:29;;;;;;;3.30;3.00;;;;;;;;;;5094357;28;20196;-82
2022/04/02 14:20:06;;;;;;;2.40;2.20;;;;;;;;;;5094874;28;20253;-83
2022/04/02 14:23:09;;;;;;;2.45;2.25;;;;;;;;;;5089212;28;20739;-82
2022/04/02 14:26:37;;;;;;;2.40;2.20;;;;;;;;;;5050185;28;20218;-82
2022/04/02 14:29:27;;;;;;;2.15;2.00;;;;;;;;;;5096182;28;20208;-81
2022/04/02 14:32:50;;;;;;;2.38;2.17;;;;;;;;;;5093631;28;20208;-82
2022/04/02 14:36:12;;;;;;;2.13;2.03;;;;;;;;;;5078424;28;20228;-81
2022/04/02 14:39:43;;;;;;;3.28;3.05;;;;;;;;;;5101723;28;20177;-81
2022/04/02 14:42:11;;;;;;;2.22;2.00;;;;;;;;;;5043069;28;20213;-82
2022/04/02 14:45:30;;;;;;;2.70;2.25;;;;;;;;;;5089336;28;20223;-83
2022/04/02 14:48:45;;;;;;;2.63;2.20;;;;;;;;;;5099841;28;20307;-81
2022/04/02 14:52:07;;;;;;;2.58;2.35;;;;;;;;;;5092576;28;20200;-81
2022/04/02 14:55:38;;;;;;;2.42;2.25;;;;;;;;;;5011753;28;20218;-82
2022/04/02 14:59:10;;;;;;;3.65;2.05;;;;;;;;;;5069890;28;20606;-82
2022/04/02 15:02:35;;;;;;;2.60;2.35;;;;;;;;;;5035247;28;20205;-82
2022/04/02 15:05:36;;;;;;;2.70;2.50;;;;;;;;;;5035445;28;20216;-82
2022/04/02 15:08:50;;;;;;;2.80;2.60;;;;;;;;;;5096439;28;20192;-81
2022/04/02 15:11:19;;;;;;;3.13;2.58;;;;;;;;;;5096015;28;20207;-82
2022/04/02 15:13:52;;;;;;;2.58;2.38;;;;;;;;;;5098566;28;20228;-82
2022/04/02 15:16:28;;;;;;;3.63;2.50;;;;;;;;;;5099218;28;20224;-83
2022/04/02 15:19:15;;;;;;;3.97;2.10;;;;;;;;;;5098607;28;20196;-82
2022/04/02 15:21:44;;;;;;;3.35;3.05;;;;;;;;;;5098596;28;20208;-81
2022/04/02 15:24:15;;;;;;;3.17;2.60;;;;;;;;;;5098980;28;20216;-80
2022/04/02 15:26:51;;;;;;;2.63;2.42;;;;;;;;;;5098569;28;20562;-82
2022/04/02 15:29:25;;;;;;;2.45;2.00;;;;;;;;;;5098625;28;20228;-81
2022/04/02 15:32:05;;;;;;;2.38;2.15;;;;;;;;;;5097457;28;20214;-80
2022/04/02 15:34:35;;;;;;;3.08;2.60;;;;;;;;;;5097799;28;20271;-83
2022/04/02 15:37:06;;;;;;;2.10;1.90;;;;;;;;;;5098619;28;20688;-81
2022/04/02 15:39:35;;;;;;;4.78;2.40;;;;;;;;;;5097299;28;20234;-82
2022/04/02 15:42:24;;;;;;;2.30;1.90;;;;;;;;;;5097976;28;20544;-83
2022/04/02 15:44:58;;;;;;;3.10;2.65;;;;;;;;;;5097885;28;20274;-80
2022/04/02 15:47:57;;;;;;;2.13;1.92;;;;;;;;;;5097204;28;20662;-82
2022/04/02 15:50:26;;;;;;;2.13;1.98;;;;;;;;;;5044576;28;20205;-82
2022/04/02 15:53:19;;;;;;;2.67;2.47;;;;;;;;;;5084744;28;20735;-85
2022/04/02 15:55:50;;;;;;;2.58;2.38;;;;;;;;;;5099293;28;20273;-86
2022/04/02 15:58:28;;;;;;;1.90;1.80;;;;;;;;;;5098431;28;20200;-82
2022/04/02 16:00:56;;;;;;;2.72;2.53;;;;;;;;;;5097479;28;20239;-83
2022/04/02 16:03:45;;;;;;;3.05;2.63;;;;;;;;;;5099014;28;20220;-82
2022/04/02 16:06:33;;;;;;;2.60;2.40;;;;;;;;;;5091763;22;20245;-78
2022/04/02 16:09:56;;;;;;;2.80;2.45;;;;;;;;;;5054105;28;20210;-77
2022/04/02 16:12:37;;;;;;;1.83;1.70;;;;;;;;;;5044327;28;20201;-77
2022/04/02 16:15:30;;;;;;;2.88;2.67;;;;;;;;;;5067922;28;20197;-78
2022/04/02 16:18:25;;;;;;;2.50;2.30;;;;;;;;;;5067877;28;20747;-78
2022/04/02 16:21:17;;;;;;;2.45;2.25;;;;;;;;;;5060990;28;20201;-78
2022/04/02 16:23:51;;;;;;;3.92;2.83;;;;;;;;;;5072931;28;20702;-78
2022/04/02 16:26:19;;;;;;;3.35;2.30;;;;;;;;;;5073329;28;20228;-78
2022/04/02 16:28:48;;;;;;;2.78;2.22;;;;;;;;;;5073213;28;20201;-77
2022/04/02 16:31:17;;;;;;;2.45;2.25;;;;;;;;;;5072998;28;20239;-78
2022/04/02 16:33:46;;;;;;;4.10;2.85;;;;;;;;;;5072777;28;20256;-78
2022/04/02 16:36:21;;;;;;;2.25;2.15;;;;;;;;;;5072974;28;20239;-77
2022/04/02 16:38:55;;;;;;;1.98;1.88;;;;;;;;;;5067256;28;20232;-78
2022/04/02 16:41:39;;;;;;;2.80;2.30;;;;;;;;;;5072504;28;20295;-78
2022/04/02 16:44:24;;;;;;;2.40;2.20;;;;;;;;;;5073069;28;20569;-78
2022/04/02 16:46:56;;;;;;;2.78;2.10;;;;;;;;;;5073092;28;20203;-77
2022/04/02 16:49:24;;;;;;;2.63;2.42;;;;;;;;;;5072998;28;20668;-78
2022/04/02 16:51:52;;;;;;;3.05;2.35;;;;;;;;;;5072631;28;20274;-77
2022/04/02 16:54:20;;;;;;;3.58;2.30;;;;;;;;;;5072945;28;20221;-78
2022/04/02 16:56:47;;;;;;;2.20;2.00;;;;;;;;;;5071566;28;20648;-77
2022/04/02 16:59:14;;;;;;;2.92;2.60;;;;;;;;;;5072395;28;20571;-77
2022/04/02 17:01:45;;;;;;;4.35;2.70;;;;;;;;;;5071837;28;20204;-77
2022/04/02 17:04:19;;;;;;;2.70;2.50;;;;;;;;;;5065999;28;20282;-76
2022/04/02 17:06:47;;;;;;;4.07;2.45;;;;;;;;;;5066251;28;20215;-77
2022/04/02 17:09:26;;;;;;;2.97;2.63;;;;;;;;;;5071832;28;20216;-76
2022/04/02 17:11:54;;;;;;;2.72;2.13;;;;;;;;;;5071876;28;20210;-77
2022/04/02 17:14:31;;;;;;;3.20;2.40;;;;;;;;;;5071906;28;20633;-77
2022/04/02 17:17:01;;;;;;;2.60;2.40;;;;;;;;;;5071476;28;20254;-76
2022/04/02 17:19:33;;;;;;;4.18;2.53;;;;;;;;;;5072591;28;20661;-77
2022/04/02 17:22:03;;;;;;;3.92;2.55;;;;;;;;;;5073177;28;20205;-77
2022/04/02 17:24:31;;;;;;;2.58;2.38;;;;;;;;;;5076048;28;20228;-77
2022/04/02 17:27:21;;;;;;;3.85;2.50;;;;;;;;;;5073277;28;20200;-77
2022/04/02 17:29:50;;;;;;;2.53;2.30;;;;;;;;;;5059554;28;20206;-77
2022/04/02 17:32:21;;;;;;;2.67;2.47;;;;;;;;;;5074123;28;20207;-77
2022/04/02 17:34:57;;;;;;;3.88;2.30;;;;;;;;;;5073018;28;20208;-79
2022/04/02 17:37:36;;;;;;;2.25;2.15;;;;;;;;;;5068277;28;20240;-77
2022/04/02 17:40:18;;;;;;;2.33;2.15;;;;;;;;;;5071841;28;20204;-77
2022/04/02 17:42:49;;;;;;;2.03;1.92;;;;;;;;;;5071220;28;20221;-77
2022/04/02 17:45:31;;;;;;;2.50;2.30;;;;;;;;;;5065632;28;20201;-77
2022/04/02 17:48:21;;;;;;;2.47;2.28;;;;;;;;;;5067383;28;20205;-77
2022/04/02 17:50:52;;;;;;;2.20;2.00;;;;;;;;;;5071310;28;20282;-77
2022/04/02 17:53:25;;;;;;;2.25;2.05;;;;;;;;;;5068237;28;20255;-77
2022/04/02 17:56:06;;;;;;;2.22;2.13;;;;;;;;;;5065318;28;20196;-77
2022/04/02 17:58:40;;;;;;;2.13;1.92;;;;;;;;;;5064861;28;20216;-77
2022/04/02 18:01:09;;;;;;;2.33;2.13;;;;;;;;;;5061896;28;20197;-77
2022/04/02 18:03:42;;;;;;;4.40;2.42;;;;;;;;;;5062852;28;20217;-78
2022/04/02 18:06:12;;;;;;;3.53;2.22;;;;;;;;;;5064270;28;20734;-77
2022/04/02 18:08:40;;;;;;;2.40;2.20;;;;;;;;;;5064172;28;20201;-77
2022/04/02 18:11:07;;;;;;;2.13;1.92;;;;;;;;;;5068089;28;20395;-77
2022/04/02 18:13:43;;;;;;;2.33;2.13;;;;;;;;;;5067539;28;20709;-77
2022/04/02 18:16:10;;;;;;;3.05;2.35;;;;;;;;;;5068683;28;20207;-77
2022/04/02 18:18:39;;;;;;;3.95;2.20;;;;;;;;;;5068587;28;20220;-76
2022/04/02 18:21:07;;;;;;;2.80;2.47;;;;;;;;;;5069380;28;20243;-77
2022/04/02 18:23:35;;;;;;;2.17;2.00;;;;;;;;;;5068728;28;20220;-77
2022/04/02 18:26:03;;;;;;;2.58;2.38;;;;;;;;;;5068372;28;20203;-77
2022/04/02 18:28:30;;;;;;;5.22;2.50;;;;;;;;;;5068039;28;20204;-77
2022/04/02 18:30:58;;;;;;;2.47;2.28;;;;;;;;;;5068856;28;20201;-77
2022/04/02 18:33:25;;;;;;;2.25;2.00;;;;;;;;;;5067801;28;20217;-77
2022/04/02 18:35:54;;;;;;;3.05;2.80;;;;;;;;;;5068372;28;20220;-76
2022/04/02 18:38:21;;;;;;;2.03;1.88;;;;;;;;;;5068672;28;20217;-77
2022/04/02 18:40:49;;;;;;;2.50;1.92;;;;;;;;;;5068412;28;20672;-77
2022/04/02 18:43:18;;;;;;;2.13;1.92;;;;;;;;;;5066956;28;20225;-77
2022/04/02 18:45:48;;;;;;;4.28;2.50;;;;;;;;;;5066136;28;20193;-77
2022/04/02 18:48:15;;;;;;;2.78;2.28;;;;;;;;;;5053171;28;20216;-77
2022/04/02 18:50:43;;;;;;;2.92;2.33;;;;;;;;;;5067501;28;20197;-78
2022/04/02 18:53:14;;;;;;;2.50;2.30;;;;;;;;;;5066226;28;20313;-78
2022/04/02 18:55:42;;;;;;;2.75;2.28;;;;;;;;;;5066873;28;20197;-77
2022/04/02 18:58:10;;;;;;;1.92;1.83;;;;;;;;;;5066386;28;20217;-77
2022/04/02 19:00:37;;;;;;;2.53;2.33;;;;;;;;;;5068899;28;20204;-77
2022/04/02 19:03:05;;;;;;;3.78;2.40;;;;;;;;;;5066769;28;20238;-77
2022/04/02 19:05:32;;;;;;;4.47;3.88;;;;;;;;;;5067161;28;20204;-77
2022/04/02 19:08:00;;;;;;;8.93;7.40;;;;;;;;;;5070649;28;20215;-77
2022/04/02 19:10:29;;;;;;;17.40;13.48;;;;;;;;;;5067071;28;20205;-78
2022/04/02 19:12:56;;;;;;;18.45;14.68;;;;;;;;;;5068099;28;20308;-78
2022/04/02 19:15:23;;;;;;;13.18;9.57;;;;;;;;;;5067604;28;20292;-77
2022/04/02 19:17:51;;;;;;;7.65;6.45;;;;;;;;;;5065419;28;20270;-77
2022/04/02 19:20:18;;;;;;;6.38;5.13;;;;;;;;;;5060829;28;20256;-77
2022/04/02 19:22:45;;;;;;;5.22;4.03;;;;;;;;;;5065557;28;20217;-76
2022/04/02 19:25:14;;;;;;;3.53;3.22;;;;;;;;;;5073585;28;20278;-77
2022/04/02 19:27:43;;;;;;;3.67;3.38;;;;;;;;;;5074747;28;20200;-77
2022/04/02 19:30:11;;;;;;;3.95;3.65;;;;;;;;;;5074103;28;20246;-77
2022/04/02 19:32:39;;;;;;;3.97;3.30;;;;;;;;;;5073418;28;20236;-77
2022/04/02 19:35:07;;;;;;;3.70;3.38;;;;;;;;;;5073608;28;20575;-76
2022/04/02 19:37:38;;;;;;;4.97;4.18;;;;;;;;;;5073319;28;20205;-78
2022/04/02 19:40:07;;;;;;;4.85;3.45;;;;;;;;;;5073906;28;20205;-76
2022/04/02 19:42:34;;;;;;;4.18;3.72;;;;;;;;;;5072871;28;20274;-76
2022/04/02 19:45:06;;;;;;;3.90;3.30;;;;;;;;;;5073596;28;20210;-76
2022/04/02 19:47:33;;;;;;;5.18;3.65;;;;;;;;;;5073355;28;20232;-76
2022/04/02 19:50:01;;;;;;;3.67;3.08;;;;;;;;;;5062493;28;20201;-77
2022/04/02 19:52:29;;;;;;;5.07;4.55;;;;;;;;;;5072764;28;20661;-76
2022/04/02 19:54:58;;;;;;;5.05;4.15;;;;;;;;;;5066893;28;20665;-76
2022/04/02 19:57:25;;;;;;;4.63;3.72;;;;;;;;;;5066960;28;20287;-76
2022/04/02 19:59:53;;;;;;;4.45;4.03;;;;;;;;;;5067249;28;20232;-76
2022/04/02 20:02:21;;;;;;;4.10;3.70;;;;;;;;;;5074081;28;20204;-79
2022/04/02 20:04:49;;;;;;;3.75;3.45;;;;;;;;;;5075470;28;20205;-79
2022/04/02 20:07:16;;;;;;;3.53;3.22;;;;;;;;;;5060615;28;20201;-80
2022/04/02 20:09:44;;;;;;;4.88;3.35;;;;;;;;;;5075030;28;20197;-80
2022/04/02 20:12:11;;;;;;;4.18;3.78;;;;;;;;;;5067968;28;20215;-80
2022/04/02 20:14:39;;;;;;;6.03;5.53;;;;;;;;;;5061323;28;20248;-80
2022/04/02 20:17:06;;;;;;;5.97;5.38;;;;;;;;;;5066759;28;20205;-79
2022/04/02 20:19:35;;;;;;;4.32;3.92;;;;;;;;;;5067490;28;20232;-80
2022/04/02 20:22:02;;;;;;;4.68;3.72;;;;;;;;;;5068078;28;20205;-81
2022/04/02 20:24:30;;;;;;;4.15;2.97;;;;;;;;;;5074012;28;20794;-80
2022/04/02 20:26:58;;;;;;;4.60;4.13;;;;;;;;;;5074738;28;20209;-80
2022/04/02 20:29:26;;;;;;;5.05;3.63;;;;;;;;;;5068134;28;20204;-80
2022/04/02 20:31:54;;;;;;;4.10;3.78;;;;;;;;;;5067713;28;20232;-81
2022/04/02 20:34:21;;;;;;;3.25;2.97;;;;;;;;;;5073773;28;20766;-80
2022/04/02 20:36:51;;;;;;;3.45;2.53;;;;;;;;;;5069273;28;20576;-80
2022/04/02 20:39:18;;;;;;;2.90;2.70;;;;;;;;;;5067410;28;20248;-80
2022/04/02 20:41:48;;;;;;;3.28;2.97;;;;;;;;;;5073410;28;20196;-80
2022/04/02 20:44:16;;;;;;;3.90;2.92;;;;;;;;;;5074226;28;20217;-80
2022/04/02 20:46:46;;;;;;;3.50;3.15;;;;;;;;;;5073936;28;20217;-80
2022/04/02 20:49:14;;;;;;;3.78;3.42;;;;;;;;;;5073110;28;20673;-80
2022/04/02 20:51:41;;;;;;;3.70;3.40;;;;;;;;;;5073007;28;20208;-81
2022/04/02 20:54:10;;;;;;;3.28;2.88;;;;;;;;;;5074058;28;20224;-80
2022/04/02 20:56:38;;;;;;;3.70;2.67;;;;;;;;;;5074105;28;20212;-80
2022/04/02 20:59:06;;;;;;;3.40;3.00;;;;;;;;;;5074089;28;20640;-79
2022/04/02 21:01:34;;;;;;;3.40;2.72;;;;;;;;;;5073276;28;20201;-79
2022/04/02 21:04:03;;;;;;;3.90;3.30;;;;;;;;;;5073245;28;20220;-79
2022/04/02 21:06:31;;;;;;;3.97;3.47;;;;;;;;;;5073446;28;20324;-79
2022/04/02 21:08:58;;;;;;;3.83;3.25;;;;;;;;;;5072204;28;20286;-79
2022/04/02 21:11:27;;;;;;;3.67;3.33;;;;;;;;;;5066912;28;20888;-79
2022/04/02 21:13:54;;;;;;;3.33;3.03;;;;;;;;;;5072804;28;20229;-79
2022/04/02 21:16:21;;;;;;;4.32;3.03;;;;;;;;;;5073299;28;20680;-80
2022/04/02 21:18:48;;;;;;;3.20;3.00;;;;;;;;;;5073565;28;20229;-80
2022/04/02 21:21:16;;;;;;;4.10;3.38;;;;;;;;;;5073579;28;20193;-79
2022/04/02 21:23:43;;;;;;;3.28;2.97;;;;;;;;;;5073173;28;20278;-80
2022/04/02 21:26:10;;;;;;;3.33;3.08;;;;;;;;;;5073368;28;20208;-81
2022/04/02 21:28:39;;;;;;;2.88;2.67;;;;;;;;;;5073443;28;20212;-80
2022/04/02 21:31:07;;;;;;;2.97;2.67;;;;;;;;;;5073042;28;20209;-79
2022/04/02 21:33:34;;;;;;;4.07;2.90;;;;;;;;;;5073586;28;20229;-80
2022/04/02 21:36:01;;;;;;;3.40;3.10;;;;;;;;;;5073493;28;20295;-80
2022/04/02 21:38:29;;;;;;;3.05;2.80;;;;;;;;;;5073876;28;20258;-80
2022/04/02 21:40:56;;;;;;;3.45;3.03;;;;;;;;;;5073488;28;20196;-80
2022/04/02 21:43:23;;;;;;;4.35;3.30;;;;;;;;;;5073244;28;20613;-80
2022/04/02 21:45:52;;;;;;;3.40;3.10;;;;;;;;;;5073480;28;20205;-80
2022/04/02 21:48:19;;;;;;;3.03;2.72;;;;;;;;;;5073624;28;20197;-79
2022/04/02 21:50:46;;;;;;;3.67;2.92;;;;;;;;;;5073082;28;20193;-80
2022/04/02 21:53:13;;;;;;;3.22;2.78;;;;;;;;;;5088841;23;20231;-77
2022/04/02 21:55:41;;;;;;;2.75;2.38;;;;;;;;;;5082126;28;20207;-76
2022/04/02 21:58:08;;;;;;;2.92;2.60;;;;;;;;;;5075685;28;20193;-76
2022/04/02 22:01:29;;;;;;;3.90;2.63;;;;;;;;;;5071298;28;20221;-77
2022/04/02 22:03:57;;;;;;;2.50;2.30;;;;;;;;;;5029176;28;20225;-76
2022/04/02 22:06:24;;;;;;;3.67;3.38;;;;;;;;;;5073519;28;20295;-76
2022/04/02 22:08:52;;;;;;;3.88;3.45;;;;;;;;;;5091474;28;20204;-77
2022/04/02 22:11:19;;;;;;;3.15;2.60;;;;;;;;;;5091004;28;20737;-77
2022/04/02 22:13:46;;;;;;;3.35;3.05;;;;;;;;;;5091393;28;20285;-76
2022/04/02 22:16:14;;;;;;;2.88;2.67;;;;;;;;;;5091271;28;20573;-77
2022/04/02 22:18:42;;;;;;;3.70;3.15;;;;;;;;;;5091256;28;20196;-76
2022/04/02 22:21:11;;;;;;;3.22;2.65;;;;;;;;;;5091342;28;20216;-77
2022/04/02 22:23:39;;;;;;;3.50;3.05;;;;;;;;;;5089940;28;20306;-76
2022/04/02 22:26:06;;;;;;;2.88;2.47;;;;;;;;;;5089743;28;20200;-76
2022/04/02 22:28:34;;;;;;;3.10;2.90;;;;;;;;;;5091714;28;20196;-76
2022/04/02 22:31:03;;;;;;;2.20;2.03;;;;;;;;;;5091304;28;20726;-77
2022/04/02 22:33:30;;;;;;;2.40;2.17;;;;;;;;;;5091197;28;20217;-77
2022/04/02 22:35:59;;;;;;;3.90;2.70;;;;;;;;;;5090857;28;20204;-76
2022/04/02 22:38:28;;;;;;;2.38;2.17;;;;;;;;;;5091064;28;20200;-77
2022/04/02 22:40:56;;;;;;;1.85;1.75;;;;;;;;;;5091404;28;20220;-76
2022/04/02 22:43:23;;;;;;;2.60;2.25;;;;;;;;;;5091288;28;20240;-76
2022/04/02 22:45:51;;;;;;;2.72;2.53;;;;;;;;;;5091094;28;20204;-76
2022/04/02 22:48:18;;;;;;;2.75;2.55;;;;;;;;;;5091156;28;20206;-76
2022/04/02 22:50:46;;;;;;;3.20;2.83;;;;;;;;;;5091083;28;20207;-76
2022/04/02 22:53:15;;;;;;;2.40;2.20;;;;;;;;;;5091049;28;20308;-76
2022/04/02 22:55:42;;;;;;;2.20;2.00;;;;;;;;;;5092349;28;20223;-76
2022/04/02 22:58:09;;;;;;;2.58;1.60;;;;;;;;;;5095353;28;20204;-77
2022/04/02 23:00:37;;;;;;;6.47;1.98;;;;;;;;;;5094289;28;20224;-76
2022/04/02 23:03:05;;;;;;;1.73;1.63;;;;;;;;;;5094728;28;20228;-77
2022/04/02 23:05:32;;;;;;;2.75;2.50;;;;;;;;;;5094393;28;20207;-76
2022/04/02 23:07:59;;;;;;;2.45;2.25;;;;;;;;;;5094688;28;20200;-77
2022/04/02 23:10:28;;;;;;;2.10;1.90;;;;;;;;;;5094068;28;20204;-77
2022/04/02 23:12:55;;;;;;;2.25;1.95;;;;;;;;;;5093890;28;20642;-76
2022/04/02 23:15:23;;;;;;;1.83;1.73;;;;;;;;;;5094633;28;20202;-76
2022/04/02 23:17:50;;;;;;;2.30;2.10;;;;;;;;;;5094472;28;20200;-75
2022/04/02 23:20:19;;;;;;;2.13;1.83;;;;;;;;;;5093986;28;20703;-77
2022/04/02 23:22:46;;;;;;;1.90;1.77;;;;;;;;;;5094521;28;20230;-77
2022/04/02 23:25:13;;;;;;;2.38;2.17;;;;;;;;;;5094086;28;20265;-76
2022/04/02 23:27:42;;;;;;;2.33;1.95;;;;;;;;;;5094340;28;20227;-76
2022/04/02 23:30:12;;;;;;;2.47;2.22;;;;;;;;;;5094272;28;20196;-77
2022/04/02 23:32:40;;;;;;;2.00;1.80;;;;;;;;;;5094227;28;20197;-77
2022/04/02 23:35:09;;;;;;;1.80;1.70;;;;;;;;;;5094622;28;20212;-76
2022/04/02 23:37:36;;;;;;;2.00;1.90;;;;;;;;;;5094462;28;20672;-77
2022/04/02 23:40:04;;;;;;;2.03;1.80;;;;;;;;;;5093861;28;20220;-76
2022/04/02 23:42:31;;;;;;;2.03;1.92;;;;;;;;;;5093540;28;20230;-76
2022/04/02 23:45:00;;;;;;;1.55;1.45;;;;;;;;;;5093719;28;20200;-75
2022/04/02 23:47:27;;;;;;;4.82;1.50;;;;;;;;;;5094121;28;20204;-76
2022/04/02 23:49:54;;;;;;;2.13;1.55;;;;;;;;;;5093892;28;20449;-77
2022/04/02 23:52:21;;;;;;;2.28;2.08;;;;;;;;;;5094108;28;20618;-77
2022/04/02 23:54:49;;;;;;;1.80;1.67;;;;;;;;;;5093247;28;20216;-76
2022/04/02 23:57:16;;;;;;;1.70;1.60;;;;;;;;;;5093746;28;20205;-77
2022/04/02 23:59:43;;;;;;;2.20;1.70;;;;;;;;;;5093671;28;20208;-76
